Time;durP1;ratioP1;P1;durP2;ratioP2;P2;SDS_P1;SDS_P2;PMS_P1;PMS_P2;Temp;Humidity;BMP_temperature;BMP_pressure;BME280_temperature;BME280_humidity;BME280_pressure;Samples;Min_cycle;Max_cycle;Signal;HPM_P1;HPM_P2
2023/01/15 00:01:26;;;;;;;31.77;14.60;;;;;;;-141.97;100.00;47891.97;5014386;28;20173;-84
2023/01/15 00:03:53;;;;;;;35.50;16.33;;;;;;;-141.97;100.00;47903.50;5031691;28;20185;-86
2023/01/15 00:06:20;;;;;;;39.77;17.77;;;;;;;-141.97;100.00;47893.91;5031869;28;20666;-84
2023/01/15 00:08:46;;;;;;;35.73;17.43;;;;;;;-141.97;100.00;47855.44;5032079;28;20169;-84
2023/01/15 00:11:12;;;;;;;34.23;15.77;;;;;;;-141.97;100.00;47803.56;5032220;28;20170;-83
2023/01/15 00:13:38;;;;;;;34.17;15.67;;;;;;;-141.97;100.00;47872.75;5014362;28;20177;-82
2023/01/15 00:16:03;;;;;;;34.20;15.67;;;;;;;-141.97;100.00;47899.66;5031914;28;20205;-84
2023/01/15 00:18:29;;;;;;;35.73;16.30;;;;;;;-141.97;100.00;47880.44;5031459;28;20172;-84
2023/01/15 00:21:02;;;;;;;32.73;15.23;;;;;;;-141.97;100.00;47961.19;5031832;28;20189;-84
2023/01/15 00:28:58;;;;;;;29.93;13.77;;;;;;;-141.97;100.00;47918.88;5031614;28;20168;-84
2023/01/15 00:31:24;;;;;;;29.77;13.83;;;;;;;-141.97;100.00;47872.75;5031524;28;20166;-83
2023/01/15 00:33:49;;;;;;;30.63;14.10;;;;;;;-141.97;100.00;47888.13;5031304;28;20174;-84
2023/01/15 00:36:15;;;;;;;32.37;14.70;;;;;;;-141.97;100.00;47982.31;5031344;28;20647;-84
2023/01/15 00:38:40;;;;;;;30.70;14.33;;;;;;;-141.97;100.00;47911.19;5031838;28;20182;-84
2023/01/15 00:41:05;;;;;;;33.07;14.87;;;;;;;-141.97;100.00;47911.19;5033929;28;20611;-84
2023/01/15 00:43:31;;;;;;;31.60;14.93;;;;;;;-141.97;100.00;47876.59;5042174;28;20173;-84
2023/01/15 00:45:56;;;;;;;33.40;14.87;;;;;;;-141.97;100.00;47811.25;5027162;28;20198;-84
2023/01/15 00:48:22;;;;;;;36.27;15.83;;;;;;;-141.97;100.00;47836.22;5038592;28;20167;-84
2023/01/15 00:50:47;;;;;;;34.00;14.90;;;;;;;-141.97;100.00;47918.88;5015996;28;20188;-84
2023/01/15 00:53:12;;;;;;;30.93;14.43;;;;;;;-141.97;100.00;47903.50;5032982;28;20166;-84
2023/01/15 00:55:38;;;;;;;31.17;14.63;;;;;;;-141.97;100.00;47795.88;5030090;28;20678;-84
2023/01/15 00:58:03;;;;;;;31.10;14.50;;;;;;;-141.97;100.00;47913.13;5033968;28;20166;-85
2023/01/15 01:00:28;;;;;;;32.37;14.80;;;;;;;-141.97;100.00;47918.88;5042247;28;20165;-83
2023/01/15 01:02:56;;;;;;;29.93;14.13;;;;;;;-141.97;100.00;47880.44;5044048;28;20184;-83
2023/01/15 01:05:21;;;;;;;28.33;14.40;;;;;;;-141.97;100.00;47905.44;5038235;28;20166;-83
2023/01/15 01:07:46;;;;;;;28.40;13.20;;;;;;;-141.97;100.00;47780.47;5035394;28;20166;-86
2023/01/15 01:10:12;;;;;;;30.53;14.83;;;;;;;-141.97;100.00;47943.88;5035340;28;20163;-86
2023/01/15 01:12:37;;;;;;;31.67;14.60;;;;;;;-141.97;100.00;47915.03;5035143;28;20170;-83
2023/01/15 01:15:03;;;;;;;34.70;16.33;;;;;;;-141.97;100.00;47865.06;5034741;28;20589;-83
2023/01/15 01:17:28;;;;;;;31.53;14.87;;;;;;;-141.97;100.00;47899.66;5036979;28;20619;-83
2023/01/15 01:19:54;;;;;;;37.50;15.53;;;;;;;-141.97;100.00;47918.88;5040959;28;20166;-83
2023/01/15 01:22:19;;;;;;;32.23;14.97;;;;;;;-141.97;100.00;47790.09;5035304;28;20170;-83
2023/01/15 01:24:45;;;;;;;33.17;14.70;;;;;;;-141.97;100.00;47901.59;5039895;28;20166;-83
2023/01/15 01:27:10;;;;;;;31.00;14.53;;;;;;;-141.97;100.00;47901.59;5043061;28;20201;-84
2023/01/15 01:29:35;;;;;;;29.97;13.97;;;;;;;-141.97;100.00;47757.41;5045685;28;20166;-83
2023/01/15 01:32:01;;;;;;;29.77;13.70;;;;;;;-141.97;100.00;47872.75;5043421;28;20174;-83
2023/01/15 01:34:26;;;;;;;34.17;14.63;;;;;;;-141.97;100.00;47895.81;5043007;28;20166;-83
2023/01/15 01:36:51;;;;;;;32.00;14.93;;;;;;;-141.97;100.00;47905.44;5036376;28;20307;-81
2023/01/15 01:39:18;;;;;;;31.80;14.17;;;;;;;-141.97;100.00;47880.44;5035345;28;20170;-83
2023/01/15 01:41:45;;;;;;;35.30;15.17;;;;;;;-141.97;100.00;47922.72;5036367;28;20250;-85
2023/01/15 01:44:32;;;;;;;33.00;14.47;;;;;;;-141.97;100.00;47888.13;5036206;28;20170;-85
2023/01/15 01:47:00;;;;;;;31.17;13.67;;;;;;;-141.97;100.00;47907.34;5020082;28;20646;-85
2023/01/15 01:49:26;;;;;;;33.60;13.90;;;;;;;-141.97;100.00;47866.97;5043381;28;20196;-84
2023/01/15 01:52:02;;;;;;;35.47;14.30;;;;;;;-141.97;100.00;47884.28;5044063;28;20158;-85
2023/01/15 01:54:31;;;;;;;29.63;13.00;;;;;;;-141.97;100.00;47978.47;5044357;28;20225;-84
2023/01/15 01:56:57;;;;;;;30.10;14.17;;;;;;;-141.97;100.00;47953.50;5043742;28;20161;-84
2023/01/15 01:59:25;;;;;;;31.97;14.10;;;;;;;-141.97;100.00;47826.63;5041486;28;20166;-85
2023/01/15 02:01:51;;;;;;;28.30;12.90;;;;;;;-141.97;100.00;47865.06;5039846;28;20170;-84
2023/01/15 02:04:20;;;;;;;31.77;13.50;;;;;;;-141.97;100.00;47957.34;5036100;28;20162;-84
2023/01/15 02:06:46;;;;;;;31.17;14.00;;;;;;;-141.97;100.00;47868.91;5035231;28;20186;-84
2023/01/15 02:09:12;;;;;;;29.20;13.00;;;;;;;-141.97;100.00;47857.38;5033630;28;20170;-84
2023/01/15 02:11:37;;;;;;;30.57;14.00;;;;;;;-141.97;100.00;47822.78;5029917;28;20538;-84
2023/01/15 02:14:28;;;;;;;32.70;14.13;;;;;;;-141.97;100.00;47866.97;5025958;28;20281;-84
2023/01/15 02:17:09;;;;;;;30.77;13.70;;;;;;;-141.97;100.00;47866.97;5032727;28;20580;-84
2023/01/15 02:20:16;;;;;;;31.40;13.63;;;;;;;-141.97;100.00;47874.69;5033508;28;20168;-83
2023/01/15 02:23:05;;;;;;;29.77;13.67;;;;;;;-141.97;100.00;47890.06;5033278;28;20158;-82
2023/01/15 02:25:58;;;;;;;33.67;13.50;;;;;;;-141.97;100.00;47907.34;5033413;28;20622;-86
2023/01/15 02:28:28;;;;;;;30.20;12.93;;;;;;;-141.97;100.00;47988.09;5033635;28;20162;-83
2023/01/15 02:31:31;;;;;;;27.00;12.17;;;;;;;-141.97;100.00;47857.38;5033411;28;20166;-85
2023/01/15 02:34:10;;;;;;;22.73;11.40;;;;;;;-141.97;100.00;47886.22;4972874;28;20206;-84
2023/01/15 02:36:40;;;;;;;27.53;12.07;;;;;;;-141.97;100.00;47884.28;4972733;28;20160;-84
2023/01/15 02:39:11;;;;;;;23.77;10.87;;;;;;;-141.97;100.00;47886.22;4972737;28;20187;-84
2023/01/15 02:41:44;;;;;;;23.67;11.00;;;;;;;-141.97;100.00;47895.81;4972521;28;20171;-85
2023/01/15 02:44:12;;;;;;;24.57;11.40;;;;;;;-141.97;100.00;47897.75;4972156;28;20188;-84
2023/01/15 02:46:40;;;;;;;22.27;10.43;;;;;;;-141.97;100.00;47842.00;4972429;28;20247;-84
2023/01/15 02:49:11;;;;;;;23.27;10.60;;;;;;;-141.97;100.00;47882.38;4972350;28;20172;-83
2023/01/15 02:51:43;;;;;;;20.30;9.60;;;;;;;-141.97;100.00;47959.25;4972415;28;20242;-84
2023/01/15 02:54:13;;;;;;;21.60;10.17;;;;;;;-141.97;100.00;47907.34;4971690;28;20294;-84
2023/01/15 02:56:41;;;;;;;23.77;11.20;;;;;;;-141.97;100.00;47882.38;4956016;28;20167;-84
2023/01/15 02:59:11;;;;;;;19.60;9.53;;;;;;;-141.97;100.00;47876.59;4972197;28;20199;-85
2023/01/15 03:01:48;;;;;;;20.67;10.07;;;;;;;-141.97;100.00;47963.09;4972410;28;20219;-84
2023/01/15 03:04:20;;;;;;;21.83;10.03;;;;;;;-141.97;100.00;47897.75;4972429;28;20211;-85
2023/01/15 03:06:54;;;;;;;19.33;9.80;;;;;;;-141.97;100.00;47888.13;4972498;28;20784;-83
2023/01/15 03:09:20;;;;;;;25.40;10.37;;;;;;;-141.97;100.00;47861.22;4972400;28;20255;-84
2023/01/15 03:11:58;;;;;;;23.60;10.90;;;;;;;-141.97;100.00;47905.44;5008517;28;20198;-84
2023/01/15 03:14:35;;;;;;;26.40;11.70;;;;;;;-141.97;100.00;47899.66;5012725;28;20694;-84
2023/01/15 03:17:13;;;;;;;26.00;11.70;;;;;;;-141.97;100.00;47865.06;5012613;28;20166;-84
2023/01/15 03:19:42;;;;;;;26.43;12.27;;;;;;;-141.97;100.00;47830.47;5018550;28;20264;-84
2023/01/15 03:22:23;;;;;;;28.27;12.37;;;;;;;-141.97;100.00;47957.34;5015325;28;20499;-83
2023/01/15 03:24:59;;;;;;;34.57;13.93;;;;;;;-141.97;100.00;47872.75;5013091;28;20198;-84
2023/01/15 03:27:26;;;;;;;29.40;13.50;;;;;;;-141.97;100.00;47874.69;5012709;28;20751;-84
2023/01/15 03:29:57;;;;;;;28.53;13.13;;;;;;;-141.97;100.00;47941.94;5012188;28;20220;-85
2023/01/15 03:32:24;;;;;;;31.00;14.00;;;;;;;-141.97;100.00;47915.03;5012476;28;20173;-84
2023/01/15 03:34:53;;;;;;;33.77;14.57;;;;;;;-141.97;100.00;47924.66;5014917;28;20163;-87
2023/01/15 03:37:20;;;;;;;35.63;15.10;;;;;;;-141.97;100.00;47907.34;5018783;28;20167;-84
2023/01/15 03:39:46;;;;;;;36.03;14.23;;;;;;;-141.97;100.00;47859.28;5015490;28;20305;-84
2023/01/15 03:42:38;;;;;;;35.63;14.63;;;;;;;-141.97;100.00;47891.97;5013791;28;20167;-84
2023/01/15 03:45:15;;;;;;;31.83;14.60;;;;;;;-141.97;100.00;47886.22;5013050;28;20163;-83
2023/01/15 03:47:51;;;;;;;30.63;14.07;;;;;;;-141.97;100.00;47953.50;5012695;28;20194;-83
2023/01/15 03:50:26;;;;;;;32.80;14.50;;;;;;;-141.97;100.00;47861.22;5016110;28;20547;-87
2023/01/15 03:52:57;;;;;;;31.30;14.10;;;;;;;-141.97;100.00;47949.66;5018434;28;20173;-83
2023/01/15 03:55:44;;;;;;;34.43;14.60;;;;;;;-141.97;100.00;47930.41;5037475;28;20244;-84
2023/01/15 03:58:35;;;;;;;33.63;14.50;;;;;;;-141.97;100.00;47861.22;5036252;28;20200;-83
2023/01/15 04:01:06;;;;;;;33.47;14.47;;;;;;;-141.97;100.00;47886.22;4971096;28;20199;-82
2023/01/15 04:03:33;;;;;;;32.20;14.90;;;;;;;-141.97;100.00;47870.81;4971316;28;20187;-86
2023/01/15 04:06:01;;;;;;;32.50;15.07;;;;;;;-141.97;100.00;47868.91;4971107;28;20293;-84
2023/01/15 04:08:30;;;;;;;35.67;15.27;;;;;;;-141.97;100.00;47928.50;4972623;28;20678;-83
2023/01/15 04:11:00;;;;;;;33.17;15.40;;;;;;;-141.97;100.00;47916.97;4974497;28;20168;-85
2023/01/15 04:13:26;;;;;;;34.17;15.23;;;;;;;-141.97;100.00;47928.50;4974304;28;20164;-85
2023/01/15 04:15:52;;;;;;;35.00;16.03;;;;;;;-141.97;100.00;47897.75;4971991;28;20187;-85
2023/01/15 04:18:18;;;;;;;35.70;16.07;;;;;;;-141.97;100.00;47872.75;4971716;28;20682;-84
2023/01/15 04:20:44;;;;;;;35.67;15.57;;;;;;;-141.97;100.00;47903.50;4948766;29;20264;-85
2023/01/15 04:23:09;;;;;;;36.40;15.10;;;;;;;-141.97;100.00;47915.03;4952710;29;20165;-85
2023/01/15 04:25:35;;;;;;;37.90;16.37;;;;;;;-141.97;100.00;47901.59;4952485;29;20185;-85
2023/01/15 04:28:01;;;;;;;36.33;16.23;;;;;;;-141.97;100.00;47795.88;4953075;29;20661;-85
2023/01/15 04:30:26;;;;;;;36.23;15.83;;;;;;;-141.97;100.00;47857.38;4952239;29;20182;-86
2023/01/15 04:32:52;;;;;;;34.33;15.83;;;;;;;-141.97;100.00;47993.84;4954452;28;20168;-85
2023/01/15 04:35:18;;;;;;;39.03;16.27;;;;;;;-141.97;100.00;47865.06;4956264;29;20179;-85
2023/01/15 04:37:45;;;;;;;39.33;18.03;;;;;;;-141.97;100.00;47876.59;4992522;28;20726;-84
2023/01/15 04:44:05;;;;;;;88.93;31.57;;;;;;;-141.97;100.00;47895.81;5025428;28;20178;-85
2023/01/15 04:45:44;;;;;;;75.40;31.10;;;;;;;-141.97;100.00;47907.34;5016705;28;20197;-85
2023/01/15 04:48:11;;;;;;;49.77;21.47;;;;;;;-141.97;100.00;47936.19;4998789;28;20206;-84
2023/01/15 04:50:37;;;;;;;43.27;18.53;;;;;;;-141.97;100.00;47815.09;5016149;28;20624;-85
2023/01/15 04:53:02;;;;;;;45.00;19.23;;;;;;;-141.97;100.00;47874.69;5016203;28;20178;-85
2023/01/15 04:55:29;;;;;;;47.70;20.20;;;;;;;-141.97;100.00;47965.03;5015803;28;20690;-85
2023/01/15 04:57:54;;;;;;;45.73;20.37;;;;;;;-141.97;100.00;47984.25;5016037;28;20162;-84
2023/01/15 05:00:20;;;;;;;45.40;18.87;;;;;;;-141.97;100.00;47907.34;4998241;28;20576;-84
2023/01/15 05:02:45;;;;;;;42.87;17.70;;;;;;;-141.97;100.00;47863.13;5016149;28;20201;-85
2023/01/15 05:05:10;;;;;;;48.10;18.30;;;;;;;-141.97;100.00;47870.81;5016408;28;20587;-85
2023/01/15 05:07:36;;;;;;;48.57;19.83;;;;;;;-141.97;100.00;47922.72;5002941;28;20182;-85
2023/01/15 05:10:02;;;;;;;51.43;21.67;;;;;;;-141.97;100.00;47880.44;5022818;28;20245;-85
2023/01/15 05:12:27;;;;;;;56.03;21.20;;;;;;;-141.97;100.00;47880.44;5022182;28;20250;-85
2023/01/15 05:14:52;;;;;;;51.23;19.90;;;;;;;-141.97;100.00;47984.25;5020881;28;20175;-84
2023/01/15 05:17:18;;;;;;;50.37;20.30;;;;;;;-141.97;100.00;47822.78;5022018;28;20158;-86
2023/01/15 05:19:43;;;;;;;57.33;20.70;;;;;;;-141.97;100.00;47884.28;5021811;28;20178;-85
2023/01/15 05:22:09;;;;;;;52.37;19.97;;;;;;;-141.97;100.00;47893.91;5023680;28;20163;-83
2023/01/15 05:24:34;;;;;;;56.30;20.57;;;;;;;-141.97;100.00;47918.88;5014659;28;20174;-86
2023/01/15 05:27:00;;;;;;;58.63;20.47;;;;;;;-141.97;100.00;47817.00;5038747;28;20246;-87
2023/01/15 05:29:26;;;;;;;60.20;21.00;;;;;;;-141.97;100.00;47868.91;5021969;28;20177;-87
2023/01/15 05:31:51;;;;;;;51.97;19.93;;;;;;;-141.97;100.00;47922.72;5036858;28;20170;-84
2023/01/15 05:34:17;;;;;;;52.20;19.70;;;;;;;-141.97;100.00;47922.72;5037318;28;20232;-85
2023/01/15 05:36:42;;;;;;;54.93;20.77;;;;;;;-141.97;100.00;47730.50;5035401;28;20174;-84
2023/01/15 05:39:08;;;;;;;47.13;19.40;;;;;;;-141.97;100.00;47859.28;5021833;28;20169;-86
2023/01/15 05:41:49;;;;;;;52.67;20.77;;;;;;;-141.97;100.00;47928.50;5034789;28;20532;-85
2023/01/15 05:44:23;;;;;;;53.33;22.77;;;;;;;-141.97;100.00;47868.91;5034699;28;20208;-84
2023/01/15 05:46:50;;;;;;;52.93;24.33;;;;;;;-141.97;100.00;47872.75;5034905;28;20562;-85
2023/01/15 05:49:18;;;;;;;52.80;23.53;;;;;;;-141.97;100.00;47876.59;5038706;28;20162;-88
2023/01/15 05:51:44;;;;;;;52.27;22.53;;;;;;;-141.97;100.00;47890.06;5034617;28;20165;-84
2023/01/15 05:54:31;;;;;;;50.60;23.37;;;;;;;-141.97;100.00;47930.41;5035266;28;20221;-85
2023/01/15 05:56:56;;;;;;;48.17;21.67;;;;;;;-141.97;100.00;47897.75;5034409;28;20162;-83
2023/01/15 05:59:24;;;;;;;46.70;22.00;;;;;;;-141.97;100.00;47847.75;5034599;28;20220;-84
2023/01/15 06:01:50;;;;;;;42.00;20.77;;;;;;;-141.97;100.00;47801.63;5034365;28;20166;-84
2023/01/15 06:04:19;;;;;;;39.87;20.23;;;;;;;-141.97;100.00;47857.38;5034749;28;20164;-84
2023/01/15 06:06:45;;;;;;;39.23;19.53;;;;;;;-141.97;100.00;47857.38;5034502;28;20190;-85
2023/01/15 06:09:11;;;;;;;37.03;18.77;;;;;;;-141.97;100.00;47899.66;5034756;28;20224;-84
2023/01/15 06:11:36;;;;;;;38.30;18.97;;;;;;;-141.97;100.00;47899.66;5034437;28;20166;-84
2023/01/15 06:14:02;;;;;;;35.57;17.53;;;;;;;-141.97;100.00;47926.56;5016383;28;20563;-83
2023/01/15 06:16:27;;;;;;;40.10;18.50;;;;;;;-141.97;100.00;47905.44;5023813;28;20228;-82
2023/01/15 06:18:53;;;;;;;36.57;18.83;;;;;;;-141.97;100.00;47718.97;5038007;28;20174;-84
2023/01/15 06:21:18;;;;;;;40.40;20.10;;;;;;;-141.97;100.00;47813.16;5049970;28;20273;-81
2023/01/15 06:23:44;;;;;;;36.77;19.40;;;;;;;-141.97;100.00;47845.84;5025053;28;20241;-86
2023/01/15 06:26:16;;;;;;;37.43;18.73;;;;;;;-141.97;100.00;47903.50;5041410;28;20190;-84
2023/01/15 06:28:42;;;;;;;40.43;18.83;;;;;;;-141.97;100.00;47945.81;5038647;28;20245;-84
2023/01/15 06:31:10;;;;;;;41.90;20.50;;;;;;;-141.97;100.00;47886.22;5035044;28;20540;-83
2023/01/15 06:33:36;;;;;;;43.07;20.47;;;;;;;-141.97;100.00;47834.31;5017849;28;20178;-84
2023/01/15 06:36:07;;;;;;;66.87;28.73;;;;;;;-141.97;100.00;47918.88;5034878;28;20231;-85
2023/01/15 06:38:33;;;;;;;57.87;25.80;;;;;;;-141.97;100.00;47778.56;5036157;28;20189;-85
2023/01/15 06:41:00;;;;;;;46.53;24.67;;;;;;;-141.97;100.00;47813.16;5042746;28;20177;-85
2023/01/15 06:48:53;;;;;;;59.20;28.87;;;;;;;-141.97;100.00;47957.34;5038160;28;20231;-86
2023/01/15 06:51:20;;;;;;;64.53;32.90;;;;;;;-141.97;100.00;47895.81;5036023;28;20167;-88
2023/01/15 06:53:46;;;;;;;56.30;28.03;;;;;;;-141.97;100.00;47890.06;5034850;28;20231;-85
2023/01/15 06:56:15;;;;;;;63.17;29.40;;;;;;;-141.97;100.00;47880.44;5033976;28;20634;-84
2023/01/15 06:58:41;;;;;;;58.33;26.17;;;;;;;-141.97;100.00;47913.13;5034648;28;20166;-84
2023/01/15 07:01:13;;;;;;;56.37;25.13;;;;;;;-141.97;100.00;47901.59;5034668;28;20177;-86
2023/01/15 07:03:39;;;;;;;58.00;24.53;;;;;;;-141.97;100.00;47945.81;5015651;28;20180;-83
2023/01/15 07:06:09;;;;;;;54.33;22.30;;;;;;;-141.97;100.00;47868.91;5033632;28;20537;-84
2023/01/15 07:08:35;;;;;;;53.13;24.57;;;;;;;-141.97;100.00;47963.09;5033699;28;20261;-83
2023/01/15 07:11:06;;;;;;;62.70;26.70;;;;;;;-141.97;100.00;47870.81;5033009;28;20579;-84
2023/01/15 07:13:32;;;;;;;54.53;23.43;;;;;;;-141.97;100.00;47874.69;5032572;28;20604;-84
2023/01/15 07:15:59;;;;;;;56.60;25.63;;;;;;;-141.97;100.00;47861.22;5032515;28;20190;-83
2023/01/15 07:18:27;;;;;;;57.93;23.93;;;;;;;-141.97;100.00;47909.28;5037723;28;20161;-85
2023/01/15 07:20:59;;;;;;;60.93;29.80;;;;;;;-141.97;100.00;47930.41;5020974;28;20231;-83
2023/01/15 07:23:25;;;;;;;55.80;26.40;;;;;;;-141.97;100.00;47911.19;5035906;28;20173;-84
2023/01/15 07:25:52;;;;;;;47.97;21.70;;;;;;;-141.97;100.00;47909.28;5043239;28;20266;-86
2023/01/15 07:28:19;;;;;;;39.50;19.27;;;;;;;-141.97;100.00;47761.25;5033418;28;20162;-85
2023/01/15 07:30:44;;;;;;;41.57;19.00;;;;;;;-141.97;100.00;47861.22;5014457;28;20166;-84
2023/01/15 07:33:10;;;;;;;41.00;19.13;;;;;;;-141.97;100.00;47888.13;5032683;28;20176;-87
2023/01/15 07:35:35;;;;;;;36.17;17.73;;;;;;;-141.97;100.00;47918.88;5032390;28;20525;-84
2023/01/15 07:38:01;;;;;;;38.93;18.03;;;;;;;-141.97;100.00;47918.88;5032127;28;20166;-84
2023/01/15 07:40:27;;;;;;;38.90;19.07;;;;;;;-141.97;100.00;47957.34;5033309;28;20158;-84
2023/01/15 07:51:09;;;;;;;38.13;19.00;;;;;;;-141.97;100.00;47880.44;5034129;28;20753;-84
2023/01/15 07:53:34;;;;;;;41.17;19.93;;;;;;;-141.97;100.00;47915.03;5032368;28;20250;-84
2023/01/15 07:56:00;;;;;;;45.50;21.57;;;;;;;-141.97;100.00;47891.97;5032458;28;20162;-85
2023/01/15 07:58:25;;;;;;;43.90;21.13;;;;;;;-141.97;100.00;47915.03;5032023;28;20228;-84
2023/01/15 08:00:52;;;;;;;41.30;21.67;;;;;;;-141.97;100.00;47918.88;5033173;28;20622;-85
2023/01/15 08:03:17;;;;;;;43.53;21.20;;;;;;;-141.97;100.00;47845.84;5034323;28;20170;-85
2023/01/15 08:05:42;;;;;;;42.17;20.63;;;;;;;-141.97;100.00;47897.75;5031612;28;20166;-85
2023/01/15 08:08:14;;;;;;;60.30;26.07;;;;;;;-141.97;100.00;47888.13;5030849;28;20205;-84
2023/01/15 08:15:11;;;;;;;45.97;22.40;;;;;;;-141.97;100.00;47901.59;5031434;28;20166;-85
2023/01/15 08:16:10;;;;;;;48.30;24.03;;;;;;;-141.97;100.00;47882.38;5031917;28;20176;-84
2023/01/15 08:18:35;;;;;;;48.30;24.43;;;;;;;-141.97;100.00;47916.97;5036254;28;20158;-85
2023/01/15 08:21:01;;;;;;;46.03;23.33;;;;;;;-141.97;100.00;47832.38;5044269;28;20197;-84
2023/01/15 08:23:26;;;;;;;45.47;22.67;;;;;;;-141.97;100.00;47866.97;5050569;28;20162;-84
2023/01/15 08:28:27;;;;;;;39.03;19.27;;;;;;;-141.97;100.00;47855.44;4971615;28;20216;-84
2023/01/15 08:30:52;;;;;;;37.20;19.53;;;;;;;-141.97;100.00;47880.44;4958756;29;20251;-84
2023/01/15 08:33:18;;;;;;;35.93;18.93;;;;;;;-141.97;100.00;47840.06;4956930;29;20246;-84
2023/01/15 08:35:43;;;;;;;36.13;18.93;;;;;;;-141.97;100.00;47853.53;4959228;29;20184;-86
2023/01/15 08:38:09;;;;;;;36.57;19.27;;;;;;;-141.97;100.00;48011.16;4961367;29;20689;-83
2023/01/15 08:40:57;;;;;;;39.43;19.47;;;;;;;-141.97;100.00;47907.34;4961756;29;20261;-84
2023/01/15 08:43:21;;;;;;;36.60;20.53;;;;;;;-141.97;100.00;47872.75;4962528;28;20196;-84
2023/01/15 08:45:46;;;;;;;34.20;18.20;;;;;;;-141.97;100.00;47926.56;4969455;29;20191;-83
2023/01/15 08:48:12;;;;;;;34.77;18.07;;;;;;;-141.97;100.00;47884.28;4974153;29;20165;-82
2023/01/15 08:50:37;;;;;;;34.80;17.10;;;;;;;-141.97;100.00;47776.63;4971299;29;20235;-84
2023/01/15 08:53:03;;;;;;;36.33;19.37;;;;;;;-141.97;100.00;47872.75;4964208;29;20188;-84
2023/01/15 08:55:28;;;;;;;32.47;16.50;;;;;;;-141.97;100.00;47880.44;4961844;29;20180;-83
2023/01/15 08:57:53;;;;;;;44.67;22.03;;;;;;;-141.97;100.00;47899.66;4957597;29;20165;-83
2023/01/15 09:00:20;;;;;;;31.60;17.13;;;;;;;-141.97;100.00;47901.59;4945407;28;20184;-84
2023/01/15 09:02:45;;;;;;;37.80;17.40;;;;;;;-141.97;100.00;47945.81;4970132;28;20172;-85
2023/01/15 09:05:11;;;;;;;39.70;18.37;;;;;;;-141.97;100.00;47857.38;4956367;28;20198;-85
2023/01/15 09:07:36;;;;;;;36.73;17.87;;;;;;;-141.97;100.00;47803.56;4973073;28;20214;-85
2023/01/15 09:10:03;;;;;;;33.90;16.80;;;;;;;-141.97;100.00;47851.59;4972884;28;20168;-84
2023/01/15 09:12:29;;;;;;;39.07;18.70;;;;;;;-141.97;100.00;48038.06;4953802;28;20180;-83
2023/01/15 09:14:57;;;;;;;36.83;17.47;;;;;;;-141.97;100.00;47884.28;4938574;29;20169;-86
2023/01/15 09:17:23;;;;;;;47.50;21.67;;;;;;;-141.97;100.00;47884.28;4974899;28;20183;-85
2023/01/15 09:19:49;;;;;;;41.77;22.07;;;;;;;-141.97;100.00;47911.19;4983359;28;20264;-85
2023/01/15 09:22:14;;;;;;;34.93;16.93;;;;;;;-141.97;100.00;47918.88;4973952;29;20204;-86
2023/01/15 09:24:40;;;;;;;39.07;19.90;;;;;;;-141.97;100.00;47959.25;4958934;29;20180;-85
2023/01/15 09:27:05;;;;;;;41.50;20.70;;;;;;;-141.97;100.00;47799.72;4978853;28;20235;-87
2023/01/15 09:29:31;;;;;;;39.43;19.60;;;;;;;-141.97;100.00;47945.81;4978205;29;20160;-86
2023/01/15 09:31:57;;;;;;;39.00;19.53;;;;;;;-141.97;100.00;47911.19;4960667;29;20177;-85
2023/01/15 09:34:23;;;;;;;37.57;18.87;;;;;;;-141.97;100.00;47918.88;4977622;29;20157;-84
2023/01/15 09:36:49;;;;;;;37.90;19.27;;;;;;;-141.97;100.00;47974.63;4967485;29;20153;-86
2023/01/15 09:39:15;;;;;;;44.07;20.93;;;;;;;-141.97;100.00;47991.94;4957151;28;20188;-84
2023/01/15 09:42:14;;;;;;;38.73;19.13;;;;;;;-141.97;100.00;47865.06;4956583;29;20177;-85
2023/01/15 09:44:42;;;;;;;37.50;17.13;;;;;;;-141.97;100.00;47911.19;4956422;29;20611;-84
2023/01/15 09:47:15;;;;;;;35.67;17.70;;;;;;;-141.97;100.00;47899.66;4955734;29;20227;-85
2023/01/15 09:49:55;;;;;;;34.30;17.93;;;;;;;-141.97;100.00;47903.50;4956410;29;20169;-85
2023/01/15 09:52:41;;;;;;;36.00;17.93;;;;;;;-141.97;100.00;47888.13;4956233;29;20704;-86
2023/01/15 09:55:28;;;;;;;33.77;16.27;;;;;;;-141.97;100.00;47915.03;4939161;29;20178;-85
2023/01/15 09:58:00;;;;;;;32.77;16.73;;;;;;;-141.97;100.00;47930.41;4955775;29;20160;-85
2023/01/15 10:00:28;;;;;;;30.77;16.20;;;;;;;-141.97;100.00;47847.75;4955318;29;20668;-88
2023/01/15 10:03:03;;;;;;;29.23;14.97;;;;;;;-141.97;100.00;47899.66;4956429;29;20215;-85
2023/01/15 10:05:34;;;;;;;28.53;13.90;;;;;;;-141.97;100.00;47907.34;4957638;29;20156;-85
2023/01/15 10:08:16;;;;;;;30.03;15.70;;;;;;;-141.97;100.00;47947.72;4939173;29;20201;-85
2023/01/15 10:10:48;;;;;;;27.50;14.63;;;;;;;-141.97;100.00;47934.25;4938182;29;20180;-85
2023/01/15 10:13:52;;;;;;;26.30;13.57;;;;;;;-141.97;100.00;47922.72;4938258;29;20192;-85
2023/01/15 10:16:32;;;;;;;31.67;13.73;;;;;;;-141.97;100.00;47880.44;4938429;29;20695;-84
2023/01/15 10:19:01;;;;;;;26.47;12.93;;;;;;;-141.97;100.00;47884.28;4956110;29;20163;-85
2023/01/15 10:21:50;;;;;;;35.07;16.20;;;;;;;-141.97;100.00;47836.22;4955039;29;20201;-84
2023/01/15 10:24:22;;;;;;;39.17;20.23;;;;;;;-141.97;100.00;47916.97;4938143;29;20239;-85
2023/01/15 10:26:54;;;;;;;37.23;18.20;;;;;;;-141.97;100.00;47882.38;4955288;28;20320;-86
2023/01/15 10:29:29;;;;;;;39.33;19.50;;;;;;;-141.97;100.00;47880.44;4955026;28;20182;-86
2023/01/15 10:32:40;;;;;;;36.87;17.67;;;;;;;-141.97;100.00;47880.44;4937638;29;20176;-86
2023/01/15 10:35:18;;;;;;;41.07;19.27;;;;;;;-141.97;100.00;47874.69;4954899;29;20694;-86
2023/01/15 10:37:56;;;;;;;41.23;20.07;;;;;;;-141.97;100.00;47897.75;4956054;29;20153;-83
2023/01/15 10:40:35;;;;;;;39.77;19.33;;;;;;;-141.97;100.00;47861.22;4962294;29;20272;-85
2023/01/15 10:43:24;;;;;;;36.93;17.80;;;;;;;-141.97;100.00;47878.53;4957965;29;20200;-85
2023/01/15 10:45:54;;;;;;;34.90;15.63;;;;;;;-141.97;100.00;47913.13;4955816;29;20168;-86
2023/01/15 10:48:26;;;;;;;33.20;16.77;;;;;;;-141.97;100.00;47930.41;4958193;29;20188;-88
2023/01/15 10:50:55;;;;;;;33.50;16.60;;;;;;;-141.97;100.00;47882.38;4955657;29;20288;-86
2023/01/15 10:53:38;;;;;;;33.53;17.30;;;;;;;-141.97;100.00;47907.34;4954703;29;20586;-83
2023/01/15 10:56:12;;;;;;;45.40;20.60;;;;;;;-141.97;100.00;47891.97;4936212;29;20154;-85
2023/01/15 10:58:56;;;;;;;137.00;51.97;;;;;;;-141.97;100.00;47928.50;4936684;29;20244;-86
2023/01/15 11:01:26;;;;;;;87.13;42.80;;;;;;;-141.97;100.00;47740.13;4941838;29;20172;-85
2023/01/15 11:03:52;;;;;;;57.63;30.33;;;;;;;-141.97;100.00;47943.88;4954345;29;20164;-85
2023/01/15 11:06:21;;;;;;;33.30;17.10;;;;;;;-141.97;100.00;47909.28;4953595;29;20270;-85
2023/01/15 11:08:55;;;;;;;30.63;15.50;;;;;;;-141.97;100.00;47872.75;4954473;29;20192;-86
2023/01/15 11:20:19;;;;;;;32.00;13.37;;;;;;;-141.97;100.00;47913.13;4954421;29;20692;-85
2023/01/15 11:22:45;;;;;;;29.77;13.53;;;;;;;-141.97;100.00;47895.81;4954391;29;20165;-84
2023/01/15 11:25:13;;;;;;;33.00;15.07;;;;;;;-141.97;100.00;47915.03;4937355;29;20175;-86
2023/01/15 11:27:39;;;;;;;32.40;14.40;;;;;;;-141.97;100.00;47884.28;4960903;29;20251;-86
2023/01/15 11:30:06;;;;;;;33.67;15.93;;;;;;;-141.97;100.00;47909.28;4959828;29;20248;-84
2023/01/15 11:32:35;;;;;;;38.20;17.97;;;;;;;-141.97;100.00;47851.59;4954375;29;20193;-86
2023/01/15 11:35:02;;;;;;;32.90;14.57;;;;;;;-141.97;100.00;47868.91;4936998;29;20184;-85
2023/01/15 11:37:28;;;;;;;32.93;14.07;;;;;;;-141.97;100.00;47888.13;4953780;29;20185;-85
2023/01/15 11:40:07;;;;;;;34.20;15.00;;;;;;;-141.97;100.00;47838.16;4953913;29;20207;-84
2023/01/15 11:51:07;;;;;;;33.37;15.27;;;;;;;-141.97;98.83;47840.06;4955637;29;20235;-84